sensor_id;sensor_type;location;lat;lon;timestamp;P1;durP1;ratioP1;P2;durP2;ratioP2
47599;SDS011;33323;52.124;6.018;2022-08-21T00:01:50;2.72;;;1.27;;
47599;SDS011;33323;52.124;6.018;2022-08-21T00:04:17;5.32;;;2.58;;
47599;SDS011;33323;52.124;6.018;2022-08-21T00:06:47;3.65;;;1.70;;
47599;SDS011;33323;52.124;6.018;2022-08-21T00:09:17;3.53;;;1.38;;
47599;SDS011;33323;52.124;6.018;2022-08-21T00:11:45;4.95;;;1.90;;
47599;SDS011;33323;52.124;6.018;2022-08-21T00:14:14;5.57;;;2.42;;
47599;SDS011;33323;52.124;6.018;2022-08-21T00:16:42;3.80;;;1.25;;
47599;SDS011;33323;52.124;6.018;2022-08-21T00:19:09;3.63;;;1.48;;
47599;SDS011;33323;52.124;6.018;2022-08-21T00:21:36;4.47;;;1.40;;
47599;SDS011;33323;52.124;6.018;2022-08-21T00:24:03;6.82;;;2.63;;
47599;SDS011;33323;52.124;6.018;2022-08-21T00:26:33;9.88;;;2.25;;
47599;SDS011;33323;52.124;6.018;2022-08-21T00:29:02;3.17;;;1.80;;
47599;SDS011;33323;52.124;6.018;2022-08-21T00:31:30;4.00;;;1.63;;
47599;SDS011;33323;52.124;6.018;2022-08-21T00:33:57;2.65;;;2.28;;
47599;SDS011;33323;52.124;6.018;2022-08-21T00:36:26;4.07;;;1.58;;
47599;SDS011;33323;52.124;6.018;2022-08-21T00:38:54;2.42;;;1.55;;
47599;SDS011;33323;52.124;6.018;2022-08-21T00:41:21;4.88;;;1.70;;
47599;SDS011;33323;52.124;6.018;2022-08-21T00:44:05;3.97;;;1.50;;
47599;SDS011;33323;52.124;6.018;2022-08-21T00:46:34;4.47;;;1.50;;
47599;SDS011;33323;52.124;6.018;2022-08-21T00:49:04;5.32;;;2.28;;
47599;SDS011;33323;52.124;6.018;2022-08-21T00:51:35;2.22;;;1.38;;
47599;SDS011;33323;52.124;6.018;2022-08-21T00:54:09;4.13;;;1.58;;
47599;SDS011;33323;52.124;6.018;2022-08-21T00:56:45;6.47;;;2.38;;
47599;SDS011;33323;52.124;6.018;2022-08-21T00:59:16;3.05;;;1.42;;
47599;SDS011;33323;52.124;6.018;2022-08-21T01:01:46;2.70;;;1.48;;
47599;SDS011;33323;52.124;6.018;2022-08-21T01:04:13;7.47;;;1.90;;
47599;SDS011;33323;52.124;6.018;2022-08-21T01:06:42;8.75;;;2.75;;
47599;SDS011;33323;52.124;6.018;2022-08-21T01:09:10;2.92;;;1.50;;
47599;SDS011;33323;52.124;6.018;2022-08-21T01:11:38;2.47;;;1.50;;
47599;SDS011;33323;52.124;6.018;2022-08-21T01:14:09;4.75;;;1.45;;
47599;SDS011;33323;52.124;6.018;2022-08-21T01:16:40;3.10;;;1.13;;
47599;SDS011;33323;52.124;6.018;2022-08-21T01:19:12;2.42;;;1.23;;
47599;SDS011;33323;52.124;6.018;2022-08-21T01:21:41;4.53;;;1.50;;
47599;SDS011;33323;52.124;6.018;2022-08-21T01:24:09;4.88;;;1.55;;
47599;SDS011;33323;52.124;6.018;2022-08-21T01:26:38;3.58;;;1.63;;
47599;SDS011;33323;52.124;6.018;2022-08-21T01:29:09;4.45;;;1.80;;
47599;SDS011;33323;52.124;6.018;2022-08-21T01:31:49;3.50;;;1.75;;
47599;SDS011;33323;52.124;6.018;2022-08-21T01:34:16;6.28;;;1.60;;
47599;SDS011;33323;52.124;6.018;2022-08-21T01:36:45;4.47;;;2.47;;
47599;SDS011;33323;52.124;6.018;2022-08-21T01:39:13;3.22;;;1.55;;
47599;SDS011;33323;52.124;6.018;2022-08-21T01:41:41;3.40;;;1.50;;
47599;SDS011;33323;52.124;6.018;2022-08-21T01:44:08;2.60;;;1.65;;
47599;SDS011;33323;52.124;6.018;2022-08-21T01:46:35;3.97;;;1.88;;
47599;SDS011;33323;52.124;6.018;2022-08-21T01:49:03;2.45;;;1.40;;
47599;SDS011;33323;52.124;6.018;2022-08-21T01:51:31;2.65;;;1.60;;
47599;SDS011;33323;52.124;6.018;2022-08-21T01:53:58;4.10;;;1.58;;
47599;SDS011;33323;52.124;6.018;2022-08-21T01:56:25;6.05;;;1.83;;
47599;SDS011;33323;52.124;6.018;2022-08-21T01:58:54;4.18;;;1.73;;
47599;SDS011;33323;52.124;6.018;2022-08-21T02:01:21;3.72;;;2.00;;
47599;SDS011;33323;52.124;6.018;2022-08-21T02:03:48;6.20;;;2.30;;
47599;SDS011;33323;52.124;6.018;2022-08-21T02:06:15;5.78;;;2.20;;
47599;SDS011;33323;52.124;6.018;2022-08-21T02:08:44;3.88;;;2.00;;
47599;SDS011;33323;52.124;6.018;2022-08-21T02:11:13;3.83;;;1.38;;
47599;SDS011;33323;52.124;6.018;2022-08-21T02:13:41;5.13;;;1.83;;
47599;SDS011;33323;52.124;6.018;2022-08-21T02:16:08;4.80;;;1.63;;
47599;SDS011;33323;52.124;6.018;2022-08-21T02:18:38;3.13;;;1.88;;
47599;SDS011;33323;52.124;6.018;2022-08-21T02:21:05;4.25;;;2.03;;
47599;SDS011;33323;52.124;6.018;2022-08-21T02:23:33;4.40;;;1.60;;
47599;SDS011;33323;52.124;6.018;2022-08-21T02:26:04;3.80;;;2.20;;
47599;SDS011;33323;52.124;6.018;2022-08-21T02:28:34;4.78;;;1.70;;
47599;SDS011;33323;52.124;6.018;2022-08-21T02:31:02;5.68;;;1.58;;
47599;SDS011;33323;52.124;6.018;2022-08-21T02:33:30;4.13;;;1.90;;
47599;SDS011;33323;52.124;6.018;2022-08-21T02:35:57;4.63;;;1.95;;
47599;SDS011;33323;52.124;6.018;2022-08-21T02:38:26;4.45;;;1.77;;
47599;SDS011;33323;52.124;6.018;2022-08-21T02:40:57;4.30;;;1.77;;
47599;SDS011;33323;52.124;6.018;2022-08-21T02:43:24;6.03;;;2.42;;
47599;SDS011;33323;52.124;6.018;2022-08-21T02:45:54;3.30;;;1.95;;
47599;SDS011;33323;52.124;6.018;2022-08-21T02:48:28;5.78;;;2.10;;
47599;SDS011;33323;52.124;6.018;2022-08-21T02:50:58;6.78;;;1.75;;
47599;SDS011;33323;52.124;6.018;2022-08-21T02:53:29;5.15;;;1.75;;
47599;SDS011;33323;52.124;6.018;2022-08-21T02:55:57;4.90;;;1.50;;
47599;SDS011;33323;52.124;6.018;2022-08-21T02:58:31;3.10;;;1.63;;
47599;SDS011;33323;52.124;6.018;2022-08-21T03:01:05;5.43;;;1.77;;
47599;SDS011;33323;52.124;6.018;2022-08-21T03:03:37;3.85;;;1.92;;
47599;SDS011;33323;52.124;6.018;2022-08-21T03:06:07;7.40;;;1.95;;
47599;SDS011;33323;52.124;6.018;2022-08-21T03:08:36;4.80;;;1.90;;
47599;SDS011;33323;52.124;6.018;2022-08-21T03:11:04;3.08;;;1.80;;
47599;SDS011;33323;52.124;6.018;2022-08-21T03:13:33;9.63;;;2.08;;
47599;SDS011;33323;52.124;6.018;2022-08-21T03:15:59;4.75;;;2.30;;
47599;SDS011;33323;52.124;6.018;2022-08-21T03:18:30;3.42;;;2.05;;
47599;SDS011;33323;52.124;6.018;2022-08-21T03:20:57;12.07;;;2.53;;
47599;SDS011;33323;52.124;6.018;2022-08-21T03:23:24;5.55;;;2.00;;
47599;SDS011;33323;52.124;6.018;2022-08-21T03:25:57;3.85;;;1.88;;
47599;SDS011;33323;52.124;6.018;2022-08-21T03:28:25;3.80;;;1.70;;
47599;SDS011;33323;52.124;6.018;2022-08-21T03:30:52;3.72;;;1.60;;
47599;SDS011;33323;52.124;6.018;2022-08-21T03:33:20;3.15;;;1.80;;
47599;SDS011;33323;52.124;6.018;2022-08-21T03:35:52;3.75;;;2.03;;
47599;SDS011;33323;52.124;6.018;2022-08-21T03:38:27;6.53;;;2.08;;
47599;SDS011;33323;52.124;6.018;2022-08-21T03:40:58;4.72;;;2.35;;
47599;SDS011;33323;52.124;6.018;2022-08-21T03:43:26;3.63;;;1.90;;
47599;SDS011;33323;52.124;6.018;2022-08-21T03:45:57;4.07;;;2.10;;
47599;SDS011;33323;52.124;6.018;2022-08-21T03:48:27;4.72;;;2.10;;
47599;SDS011;33323;52.124;6.018;2022-08-21T03:50:54;3.65;;;2.60;;
47599;SDS011;33323;52.124;6.018;2022-08-21T03:53:22;4.40;;;1.98;;
47599;SDS011;33323;52.124;6.018;2022-08-21T03:55:50;4.68;;;2.05;;
47599;SDS011;33323;52.124;6.018;2022-08-21T03:58:19;3.67;;;2.80;;
47599;SDS011;33323;52.124;6.018;2022-08-21T04:00:49;5.28;;;2.17;;
47599;SDS011;33323;52.124;6.018;2022-08-21T04:03:20;3.33;;;1.98;;
47599;SDS011;33323;52.124;6.018;2022-08-21T04:05:47;4.00;;;1.85;;
47599;SDS011;33323;52.124;6.018;2022-08-21T04:08:15;5.15;;;1.90;;
47599;SDS011;33323;52.124;6.018;2022-08-21T04:10:47;6.40;;;2.45;;
47599;SDS011;33323;52.124;6.018;2022-08-21T04:13:16;4.70;;;2.17;;
47599;SDS011;33323;52.124;6.018;2022-08-21T04:15:44;3.10;;;1.90;;
47599;SDS011;33323;52.124;6.018;2022-08-21T04:18:11;2.50;;;2.15;;
47599;SDS011;33323;52.124;6.018;2022-08-21T04:20:42;5.57;;;2.08;;
47599;SDS011;33323;52.124;6.018;2022-08-21T04:23:15;3.83;;;1.95;;
47599;SDS011;33323;52.124;6.018;2022-08-21T04:25:50;3.78;;;1.70;;
47599;SDS011;33323;52.124;6.018;2022-08-21T04:28:19;5.45;;;2.30;;
47599;SDS011;33323;52.124;6.018;2022-08-21T04:30:55;5.72;;;1.67;;
47599;SDS011;33323;52.124;6.018;2022-08-21T04:33:23;4.35;;;1.80;;
47599;SDS011;33323;52.124;6.018;2022-08-21T04:35:50;4.00;;;1.52;;
47599;SDS011;33323;52.124;6.018;2022-08-21T04:38:18;1.77;;;1.40;;
47599;SDS011;33323;52.124;6.018;2022-08-21T04:40:45;5.20;;;1.35;;
47599;SDS011;33323;52.124;6.018;2022-08-21T04:43:14;4.40;;;2.30;;
47599;SDS011;33323;52.124;6.018;2022-08-21T04:45:43;3.90;;;2.22;;
47599;SDS011;33323;52.124;6.018;2022-08-21T04:48:15;7.15;;;2.10;;
47599;SDS011;33323;52.124;6.018;2022-08-21T04:53:41;8.10;;;1.95;;
47599;SDS011;33323;52.124;6.018;2022-08-21T04:56:21;6.28;;;2.40;;
47599;SDS011;33323;52.124;6.018;2022-08-21T04:58:53;3.38;;;1.90;;
47599;SDS011;33323;52.124;6.018;2022-08-21T05:01:24;2.95;;;2.00;;
47599;SDS011;33323;52.124;6.018;2022-08-21T05:03:54;3.10;;;2.53;;
47599;SDS011;33323;52.124;6.018;2022-08-21T05:06:25;3.53;;;2.15;;
47599;SDS011;33323;52.124;6.018;2022-08-21T05:08:55;3.33;;;2.17;;
47599;SDS011;33323;52.124;6.018;2022-08-21T05:11:28;4.60;;;2.85;;
47599;SDS011;33323;52.124;6.018;2022-08-21T05:13:57;7.35;;;2.63;;
47599;SDS011;33323;52.124;6.018;2022-08-21T05:16:24;4.10;;;2.25;;
47599;SDS011;33323;52.124;6.018;2022-08-21T05:19:03;7.45;;;2.92;;
47599;SDS011;33323;52.124;6.018;2022-08-21T05:21:32;7.28;;;2.83;;
47599;SDS011;33323;52.124;6.018;2022-08-21T05:24:01;6.72;;;2.47;;
47599;SDS011;33323;52.124;6.018;2022-08-21T05:26:28;6.07;;;3.20;;
47599;SDS011;33323;52.124;6.018;2022-08-21T05:28:55;5.50;;;2.90;;
47599;SDS011;33323;52.124;6.018;2022-08-21T05:31:23;4.68;;;2.90;;
47599;SDS011;33323;52.124;6.018;2022-08-21T05:33:50;6.13;;;2.42;;
47599;SDS011;33323;52.124;6.018;2022-08-21T05:36:21;5.35;;;2.88;;
47599;SDS011;33323;52.124;6.018;2022-08-21T05:38:48;3.25;;;2.50;;
47599;SDS011;33323;52.124;6.018;2022-08-21T05:41:15;5.88;;;2.53;;
47599;SDS011;33323;52.124;6.018;2022-08-21T05:43:42;7.47;;;3.20;;
47599;SDS011;33323;52.124;6.018;2022-08-21T05:46:09;5.78;;;3.28;;
47599;SDS011;33323;52.124;6.018;2022-08-21T05:48:36;8.77;;;3.53;;
47599;SDS011;33323;52.124;6.018;2022-08-21T05:51:11;9.88;;;3.72;;
47599;SDS011;33323;52.124;6.018;2022-08-21T05:53:41;7.00;;;3.80;;
47599;SDS011;33323;52.124;6.018;2022-08-21T05:56:10;15.73;;;4.78;;
47599;SDS011;33323;52.124;6.018;2022-08-21T05:58:38;10.48;;;4.50;;
47599;SDS011;33323;52.124;6.018;2022-08-21T06:01:05;11.95;;;4.82;;
47599;SDS011;33323;52.124;6.018;2022-08-21T06:03:35;11.05;;;4.50;;
47599;SDS011;33323;52.124;6.018;2022-08-21T06:06:05;9.57;;;5.05;;
47599;SDS011;33323;52.124;6.018;2022-08-21T06:08:33;6.90;;;4.70;;
47599;SDS011;33323;52.124;6.018;2022-08-21T06:11:00;8.52;;;4.60;;
47599;SDS011;33323;52.124;6.018;2022-08-21T06:13:28;13.68;;;6.50;;
47599;SDS011;33323;52.124;6.018;2022-08-21T06:18:41;11.63;;;6.65;;
47599;SDS011;33323;52.124;6.018;2022-08-21T06:21:10;10.68;;;5.70;;
47599;SDS011;33323;52.124;6.018;2022-08-21T06:23:39;14.60;;;6.28;;
47599;SDS011;33323;52.124;6.018;2022-08-21T06:26:08;9.55;;;5.43;;
47599;SDS011;33323;52.124;6.018;2022-08-21T06:28:38;12.07;;;5.53;;
47599;SDS011;33323;52.124;6.018;2022-08-21T06:31:13;9.68;;;5.68;;
47599;SDS011;33323;52.124;6.018;2022-08-21T06:33:45;8.25;;;4.78;;
47599;SDS011;33323;52.124;6.018;2022-08-21T06:36:12;12.93;;;5.53;;
47599;SDS011;33323;52.124;6.018;2022-08-21T06:38:40;9.98;;;5.95;;
47599;SDS011;33323;52.124;6.018;2022-08-21T06:41:17;9.52;;;5.80;;
47599;SDS011;33323;52.124;6.018;2022-08-21T06:43:52;13.75;;;6.22;;
47599;SDS011;33323;52.124;6.018;2022-08-21T06:46:20;11.90;;;5.63;;
47599;SDS011;33323;52.124;6.018;2022-08-21T06:48:49;10.60;;;6.15;;
47599;SDS011;33323;52.124;6.018;2022-08-21T06:51:17;11.35;;;6.10;;
47599;SDS011;33323;52.124;6.018;2022-08-21T06:53:44;11.27;;;6.35;;
47599;SDS011;33323;52.124;6.018;2022-08-21T06:56:12;10.80;;;5.70;;
47599;SDS011;33323;52.124;6.018;2022-08-21T06:58:39;8.95;;;5.18;;
47599;SDS011;33323;52.124;6.018;2022-08-21T07:01:06;13.50;;;5.38;;
47599;SDS011;33323;52.124;6.018;2022-08-21T07:03:35;14.30;;;6.40;;
47599;SDS011;33323;52.124;6.018;2022-08-21T07:06:06;9.15;;;4.85;;
47599;SDS011;33323;52.124;6.018;2022-08-21T07:08:36;10.32;;;4.72;;
47599;SDS011;33323;52.124;6.018;2022-08-21T07:11:06;12.75;;;4.05;;
47599;SDS011;33323;52.124;6.018;2022-08-21T07:13:39;13.32;;;4.60;;
47599;SDS011;33323;52.124;6.018;2022-08-21T07:16:06;9.63;;;4.55;;
47599;SDS011;33323;52.124;6.018;2022-08-21T07:18:34;14.57;;;5.13;;
47599;SDS011;33323;52.124;6.018;2022-08-21T07:21:02;11.85;;;5.20;;
47599;SDS011;33323;52.124;6.018;2022-08-21T07:23:33;8.40;;;3.75;;
47599;SDS011;33323;52.124;6.018;2022-08-21T07:26:04;12.02;;;3.92;;
47599;SDS011;33323;52.124;6.018;2022-08-21T07:28:31;12.38;;;3.10;;
47599;SDS011;33323;52.124;6.018;2022-08-21T07:30:59;11.30;;;3.42;;
47599;SDS011;33323;52.124;6.018;2022-08-21T07:33:28;10.70;;;2.97;;
47599;SDS011;33323;52.124;6.018;2022-08-21T07:35:57;5.40;;;2.63;;
47599;SDS011;33323;52.124;6.018;2022-08-21T07:38:24;16.38;;;5.45;;
47599;SDS011;33323;52.124;6.018;2022-08-21T07:40:52;12.55;;;3.13;;
47599;SDS011;33323;52.124;6.018;2022-08-21T07:43:22;7.03;;;3.17;;
47599;SDS011;33323;52.124;6.018;2022-08-21T07:45:48;7.93;;;2.75;;
47599;SDS011;33323;52.124;6.018;2022-08-21T07:48:15;11.27;;;2.67;;
47599;SDS011;33323;52.124;6.018;2022-08-21T07:50:43;4.43;;;2.17;;
47599;SDS011;33323;52.124;6.018;2022-08-21T07:53:10;12.95;;;2.83;;
47599;SDS011;33323;52.124;6.018;2022-08-21T07:55:36;5.50;;;2.38;;
47599;SDS011;33323;52.124;6.018;2022-08-21T07:58:03;8.02;;;3.50;;
47599;SDS011;33323;52.124;6.018;2022-08-21T08:00:30;7.15;;;2.63;;
47599;SDS011;33323;52.124;6.018;2022-08-21T08:02:58;10.77;;;1.95;;
47599;SDS011;33323;52.124;6.018;2022-08-21T08:05:27;10.20;;;1.77;;
47599;SDS011;33323;52.124;6.018;2022-08-21T08:07:56;5.88;;;2.00;;
47599;SDS011;33323;52.124;6.018;2022-08-21T08:10:23;10.15;;;2.47;;
47599;SDS011;33323;52.124;6.018;2022-08-21T08:12:51;9.07;;;2.00;;
47599;SDS011;33323;52.124;6.018;2022-08-21T08:15:22;7.47;;;1.67;;
47599;SDS011;33323;52.124;6.018;2022-08-21T08:17:51;4.88;;;1.80;;
47599;SDS011;33323;52.124;6.018;2022-08-21T08:20:20;6.40;;;1.58;;
47599;SDS011;33323;52.124;6.018;2022-08-21T08:22:49;8.15;;;1.67;;
47599;SDS011;33323;52.124;6.018;2022-08-21T08:25:17;5.18;;;1.88;;
47599;SDS011;33323;52.124;6.018;2022-08-21T08:27:45;9.25;;;2.20;;
47599;SDS011;33323;52.124;6.018;2022-08-21T08:30:16;5.22;;;1.50;;
47599;SDS011;33323;52.124;6.018;2022-08-21T08:32:45;7.28;;;1.70;;
47599;SDS011;33323;52.124;6.018;2022-08-21T08:35:13;13.85;;;2.33;;
47599;SDS011;33323;52.124;6.018;2022-08-21T08:37:41;4.97;;;1.15;;
47599;SDS011;33323;52.124;6.018;2022-08-21T08:40:52;6.25;;;1.67;;
47599;SDS011;33323;52.124;6.018;2022-08-21T08:43:35;12.02;;;3.10;;
47599;SDS011;33323;52.124;6.018;2022-08-21T08:46:03;15.15;;;2.80;;
47599;SDS011;33323;52.124;6.018;2022-08-21T08:48:44;5.70;;;2.25;;
47599;SDS011;33323;52.124;6.018;2022-08-21T08:51:24;7.05;;;1.90;;
47599;SDS011;33323;52.124;6.018;2022-08-21T08:54:27;5.07;;;1.95;;
47599;SDS011;33323;52.124;6.018;2022-08-21T08:57:13;6.22;;;2.10;;
47599;SDS011;33323;52.124;6.018;2022-08-21T08:59:56;7.82;;;1.75;;
47599;SDS011;33323;52.124;6.018;2022-08-21T09:02:27;7.88;;;2.17;;
47599;SDS011;33323;52.124;6.018;2022-08-21T09:04:55;9.23;;;2.00;;
47599;SDS011;33323;52.124;6.018;2022-08-21T09:10:30;12.75;;;2.88;;
47599;SDS011;33323;52.124;6.018;2022-08-21T09:13:19;9.20;;;1.80;;
47599;SDS011;33323;52.124;6.018;2022-08-21T09:16:20;7.82;;;1.48;;
47599;SDS011;33323;52.124;6.018;2022-08-21T09:21:47;9.30;;;2.28;;
47599;SDS011;33323;52.124;6.018;2022-08-21T09:24:37;6.90;;;1.50;;
47599;SDS011;33323;52.124;6.018;2022-08-21T09:27:25;7.63;;;1.45;;
47599;SDS011;33323;52.124;6.018;2022-08-21T09:29:53;6.53;;;1.20;;
47599;SDS011;33323;52.124;6.018;2022-08-21T09:32:25;6.85;;;2.42;;
47599;SDS011;33323;52.124;6.018;2022-08-21T09:35:07;3.63;;;1.27;;
47599;SDS011;33323;52.124;6.018;2022-08-21T09:40:29;6.93;;;1.42;;
47599;SDS011;33323;52.124;6.018;2022-08-21T09:43:07;7.35;;;1.75;;
47599;SDS011;33323;52.124;6.018;2022-08-21T09:48:20;7.15;;;1.30;;
47599;SDS011;33323;52.124;6.018;2022-08-21T09:56:39;4.82;;;1.20;;
47599;SDS011;33323;52.124;6.018;2022-08-21T09:59:41;9.57;;;3.30;;
47599;SDS011;33323;52.124;6.018;2022-08-21T10:02:28;6.72;;;1.50;;
47599;SDS011;33323;52.124;6.018;2022-08-21T10:05:06;13.75;;;1.35;;
47599;SDS011;33323;52.124;6.018;2022-08-21T10:07:46;3.03;;;1.05;;
47599;SDS011;33323;52.124;6.018;2022-08-21T10:18:14;4.68;;;1.17;;
47599;SDS011;33323;52.124;6.018;2022-08-21T10:24:01;7.07;;;2.15;;
47599;SDS011;33323;52.124;6.018;2022-08-21T10:29:42;5.82;;;1.52;;
47599;SDS011;33323;52.124;6.018;2022-08-21T10:32:42;6.00;;;1.30;;
47599;SDS011;33323;52.124;6.018;2022-08-21T10:35:50;5.85;;;1.33;;
47599;SDS011;33323;52.124;6.018;2022-08-21T10:44:59;3.78;;;1.30;;
47599;SDS011;33323;52.124;6.018;2022-08-21T10:47:56;3.72;;;1.40;;
47599;SDS011;33323;52.124;6.018;2022-08-21T10:53:15;9.70;;;1.00;;
47599;SDS011;33323;52.124;6.018;2022-08-21T10:55:56;6.95;;;1.02;;
47599;SDS011;33323;52.124;6.018;2022-08-21T11:02:03;4.53;;;1.13;;
47599;SDS011;33323;52.124;6.018;2022-08-21T11:04:57;7.00;;;1.17;;
47599;SDS011;33323;52.124;6.018;2022-08-21T11:07:54;6.82;;;1.25;;
47599;SDS011;33323;52.124;6.018;2022-08-21T11:16:16;4.85;;;1.25;;
47599;SDS011;33323;52.124;6.018;2022-08-21T11:18:52;3.33;;;1.15;;
47599;SDS011;33323;52.124;6.018;2022-08-21T11:21:30;4.60;;;1.60;;
47599;SDS011;33323;52.124;6.018;2022-08-21T11:27:21;4.68;;;1.17;;
47599;SDS011;33323;52.124;6.018;2022-08-21T11:29:54;5.68;;;0.85;;
47599;SDS011;33323;52.124;6.018;2022-08-21T11:32:28;8.43;;;1.98;;
47599;SDS011;33323;52.124;6.018;2022-08-21T11:35:26;6.63;;;0.70;;
47599;SDS011;33323;52.124;6.018;2022-08-21T11:41:17;5.10;;;1.17;;
47599;SDS011;33323;52.124;6.018;2022-08-21T11:47:25;5.25;;;1.08;;
47599;SDS011;33323;52.124;6.018;2022-08-21T11:56:04;6.70;;;1.10;;
47599;SDS011;33323;52.124;6.018;2022-08-21T11:58:41;4.43;;;1.08;;
47599;SDS011;33323;52.124;6.018;2022-08-21T12:01:25;3.70;;;1.00;;
47599;SDS011;33323;52.124;6.018;2022-08-21T12:03:58;3.03;;;0.90;;
47599;SDS011;33323;52.124;6.018;2022-08-21T12:06:34;3.47;;;0.67;;
47599;SDS011;33323;52.124;6.018;2022-08-21T12:09:10;3.87;;;1.17;;
47599;SDS011;33323;52.124;6.018;2022-08-21T12:12:05;3.08;;;0.82;;
47599;SDS011;33323;52.124;6.018;2022-08-21T12:14:48;4.45;;;1.08;;
47599;SDS011;33323;52.124;6.018;2022-08-21T12:17:21;5.90;;;1.35;;
47599;SDS011;33323;52.124;6.018;2022-08-21T12:22:41;5.57;;;1.00;;
47599;SDS011;33323;52.124;6.018;2022-08-21T12:25:17;4.75;;;1.35;;
47599;SDS011;33323;52.124;6.018;2022-08-21T12:27:49;2.45;;;0.73;;
47599;SDS011;33323;52.124;6.018;2022-08-21T12:33:16;4.03;;;1.27;;
47599;SDS011;33323;52.124;6.018;2022-08-21T12:35:53;3.33;;;1.88;;
47599;SDS011;33323;52.124;6.018;2022-08-21T12:38:44;4.68;;;0.80;;
47599;SDS011;33323;52.124;6.018;2022-08-21T12:41:45;3.38;;;1.15;;
47599;SDS011;33323;52.124;6.018;2022-08-21T12:44:30;2.58;;;1.05;;
47599;SDS011;33323;52.124;6.018;2022-08-21T12:47:21;3.70;;;1.10;;
47599;SDS011;33323;52.124;6.018;2022-08-21T12:50:18;5.85;;;1.17;;
47599;SDS011;33323;52.124;6.018;2022-08-21T12:53:05;3.97;;;0.73;;
47599;SDS011;33323;52.124;6.018;2022-08-21T12:55:46;4.78;;;0.82;;
47599;SDS011;33323;52.124;6.018;2022-08-21T12:58:21;3.75;;;0.90;;
47599;SDS011;33323;52.124;6.018;2022-08-21T13:00:50;8.43;;;1.58;;
47599;SDS011;33323;52.124;6.018;2022-08-21T13:03:41;7.97;;;1.20;;
47599;SDS011;33323;52.124;6.018;2022-08-21T13:06:13;5.22;;;1.05;;
47599;SDS011;33323;52.124;6.018;2022-08-21T13:08:43;7.53;;;1.70;;
47599;SDS011;33323;52.124;6.018;2022-08-21T13:11:13;4.90;;;1.20;;
47599;SDS011;33323;52.124;6.018;2022-08-21T13:13:59;8.20;;;2.10;;
47599;SDS011;33323;52.124;6.018;2022-08-21T13:16:30;5.65;;;1.27;;
47599;SDS011;33323;52.124;6.018;2022-08-21T13:19:02;5.88;;;1.10;;
47599;SDS011;33323;52.124;6.018;2022-08-21T13:21:41;4.25;;;1.40;;
47599;SDS011;33323;52.124;6.018;2022-08-21T13:24:13;3.83;;;1.30;;
47599;SDS011;33323;52.124;6.018;2022-08-21T13:27:16;3.70;;;1.17;;
47599;SDS011;33323;52.124;6.018;2022-08-21T13:30:10;3.45;;;1.17;;
47599;SDS011;33323;52.124;6.018;2022-08-21T13:32:44;6.38;;;1.42;;
47599;SDS011;33323;52.124;6.018;2022-08-21T13:35:20;6.93;;;1.63;;
47599;SDS011;33323;52.124;6.018;2022-08-21T13:37:53;3.80;;;1.20;;
47599;SDS011;33323;52.124;6.018;2022-08-21T13:40:26;5.63;;;1.23;;
47599;SDS011;33323;52.124;6.018;2022-08-21T13:42:58;5.68;;;1.15;;
47599;SDS011;33323;52.124;6.018;2022-08-21T13:45:30;13.82;;;2.65;;
47599;SDS011;33323;52.124;6.018;2022-08-21T13:47:59;2.65;;;0.98;;
47599;SDS011;33323;52.124;6.018;2022-08-21T13:50:32;2.80;;;0.98;;
47599;SDS011;33323;52.124;6.018;2022-08-21T13:53:04;3.08;;;0.80;;
47599;SDS011;33323;52.124;6.018;2022-08-21T13:55:35;3.67;;;0.90;;
47599;SDS011;33323;52.124;6.018;2022-08-21T13:58:06;8.02;;;0.95;;
47599;SDS011;33323;52.124;6.018;2022-08-21T14:00:42;4.63;;;0.93;;
47599;SDS011;33323;52.124;6.018;2022-08-21T14:03:13;4.05;;;1.00;;
47599;SDS011;33323;52.124;6.018;2022-08-21T14:06:10;4.30;;;0.85;;
47599;SDS011;33323;52.124;6.018;2022-08-21T14:09:03;4.47;;;0.95;;
47599;SDS011;33323;52.124;6.018;2022-08-21T14:12:12;4.18;;;1.10;;
47599;SDS011;33323;52.124;6.018;2022-08-21T14:14:52;4.55;;;0.88;;
47599;SDS011;33323;52.124;6.018;2022-08-21T14:17:28;3.95;;;1.10;;
47599;SDS011;33323;52.124;6.018;2022-08-21T14:20:05;5.40;;;0.82;;
47599;SDS011;33323;52.124;6.018;2022-08-21T14:22:42;3.60;;;0.95;;
47599;SDS011;33323;52.124;6.018;2022-08-21T14:25:15;4.03;;;0.70;;
47599;SDS011;33323;52.124;6.018;2022-08-21T14:28:13;2.58;;;0.50;;
47599;SDS011;33323;52.124;6.018;2022-08-21T14:31:13;4.00;;;0.90;;
47599;SDS011;33323;52.124;6.018;2022-08-21T14:33:44;4.68;;;0.90;;
47599;SDS011;33323;52.124;6.018;2022-08-21T14:36:11;2.72;;;0.95;;
47599;SDS011;33323;52.124;6.018;2022-08-21T14:38:39;4.10;;;1.10;;
47599;SDS011;33323;52.124;6.018;2022-08-21T14:41:09;3.63;;;0.88;;
47599;SDS011;33323;52.124;6.018;2022-08-21T14:43:49;6.25;;;0.88;;
47599;SDS011;33323;52.124;6.018;2022-08-21T14:46:33;3.72;;;0.90;;
47599;SDS011;33323;52.124;6.018;2022-08-21T14:49:10;4.50;;;0.90;;
47599;SDS011;33323;52.124;6.018;2022-08-21T14:51:39;3.78;;;1.73;;
47599;SDS011;33323;52.124;6.018;2022-08-21T14:54:19;5.97;;;1.80;;
47599;SDS011;33323;52.124;6.018;2022-08-21T14:56:56;3.55;;;0.82;;
47599;SDS011;33323;52.124;6.018;2022-08-21T14:59:37;6.38;;;0.73;;
47599;SDS011;33323;52.124;6.018;2022-08-21T15:02:05;2.60;;;1.02;;
47599;SDS011;33323;52.124;6.018;2022-08-21T15:04:33;6.93;;;0.90;;
47599;SDS011;33323;52.124;6.018;2022-08-21T15:07:01;4.47;;;0.65;;
47599;SDS011;33323;52.124;6.018;2022-08-21T15:09:29;5.75;;;0.98;;
47599;SDS011;33323;52.124;6.018;2022-08-21T15:11:57;7.32;;;1.83;;
47599;SDS011;33323;52.124;6.018;2022-08-21T15:14:28;7.30;;;0.98;;
47599;SDS011;33323;52.124;6.018;2022-08-21T15:16:57;6.10;;;1.05;;
47599;SDS011;33323;52.124;6.018;2022-08-21T15:19:24;2.72;;;0.90;;
47599;SDS011;33323;52.124;6.018;2022-08-21T15:21:52;6.10;;;1.52;;
47599;SDS011;33323;52.124;6.018;2022-08-21T15:24:19;6.18;;;1.73;;
47599;SDS011;33323;52.124;6.018;2022-08-21T15:26:46;6.38;;;1.00;;
47599;SDS011;33323;52.124;6.018;2022-08-21T15:29:14;5.07;;;1.17;;
47599;SDS011;33323;52.124;6.018;2022-08-21T15:31:58;5.55;;;1.40;;
47599;SDS011;33323;52.124;6.018;2022-08-21T15:34:29;5.47;;;0.98;;
47599;SDS011;33323;52.124;6.018;2022-08-21T15:36:57;2.40;;;0.85;;
47599;SDS011;33323;52.124;6.018;2022-08-21T15:39:25;8.65;;;0.80;;
47599;SDS011;33323;52.124;6.018;2022-08-21T15:41:56;4.13;;;1.15;;
47599;SDS011;33323;52.124;6.018;2022-08-21T15:44:24;5.40;;;1.55;;
47599;SDS011;33323;52.124;6.018;2022-08-21T15:46:54;2.97;;;0.70;;
47599;SDS011;33323;52.124;6.018;2022-08-21T15:49:22;5.30;;;1.75;;
47599;SDS011;33323;52.124;6.018;2022-08-21T15:51:49;4.70;;;1.38;;
47599;SDS011;33323;52.124;6.018;2022-08-21T15:54:16;6.45;;;1.10;;
47599;SDS011;33323;52.124;6.018;2022-08-21T15:56:44;8.80;;;1.20;;
47599;SDS011;33323;52.124;6.018;2022-08-21T15:59:18;6.85;;;1.27;;
47599;SDS011;33323;52.124;6.018;2022-08-21T16:01:49;5.10;;;0.73;;
47599;SDS011;33323;52.124;6.018;2022-08-21T16:04:26;3.47;;;0.65;;
47599;SDS011;33323;52.124;6.018;2022-08-21T16:06:54;5.28;;;1.83;;
47599;SDS011;33323;52.124;6.018;2022-08-21T16:09:29;3.90;;;1.25;;
47599;SDS011;33323;52.124;6.018;2022-08-21T16:11:56;3.78;;;1.08;;
47599;SDS011;33323;52.124;6.018;2022-08-21T16:14:25;9.45;;;1.13;;
47599;SDS011;33323;52.124;6.018;2022-08-21T16:16:54;5.65;;;1.73;;
47599;SDS011;33323;52.124;6.018;2022-08-21T16:19:21;8.43;;;1.77;;
47599;SDS011;33323;52.124;6.018;2022-08-21T16:21:48;6.10;;;1.02;;
47599;SDS011;33323;52.124;6.018;2022-08-21T16:24:15;5.45;;;1.20;;
47599;SDS011;33323;52.124;6.018;2022-08-21T16:26:42;4.78;;;1.05;;
47599;SDS011;33323;52.124;6.018;2022-08-21T16:29:09;8.20;;;1.50;;
47599;SDS011;33323;52.124;6.018;2022-08-21T16:31:37;4.68;;;1.13;;
47599;SDS011;33323;52.124;6.018;2022-08-21T16:34:04;7.03;;;1.30;;
47599;SDS011;33323;52.124;6.018;2022-08-21T16:36:31;9.10;;;2.08;;